sensor_id;sensor_type;location;lat;lon;timestamp;temperature;humidity
12309;DHT22;6217;48.150;17.142;2022-12-11T00:02:16;4.80;93.20
12309;DHT22;6217;48.150;17.142;2022-12-11T00:06:22;4.80;93.00
12309;DHT22;6217;48.150;17.142;2022-12-11T00:10:28;4.80;93.10
12309;DHT22;6217;48.150;17.142;2022-12-11T00:14:34;4.90;93.10
12309;DHT22;6217;48.150;17.142;2022-12-11T00:18:40;4.90;93.00
12309;DHT22;6217;48.150;17.142;2022-12-11T00:22:48;4.80;93.00
12309;DHT22;6217;48.150;17.142;2022-12-11T00:26:54;4.80;93.00
12309;DHT22;6217;48.150;17.142;2022-12-11T00:31:04;4.80;93.00
12309;DHT22;6217;48.150;17.142;2022-12-11T00:35:10;4.90;93.00
12309;DHT22;6217;48.150;17.142;2022-12-11T00:39:16;4.90;93.20
12309;DHT22;6217;48.150;17.142;2022-12-11T00:43:22;4.80;93.10
12309;DHT22;6217;48.150;17.142;2022-12-11T00:47:28;4.90;93.10
12309;DHT22;6217;48.150;17.142;2022-12-11T00:51:33;4.80;93.10
12309;DHT22;6217;48.150;17.142;2022-12-11T00:55:41;4.90;93.10
12309;DHT22;6217;48.150;17.142;2022-12-11T00:59:46;4.90;93.00
12309;DHT22;6217;48.150;17.142;2022-12-11T01:03:53;4.80;93.10
12309;DHT22;6217;48.150;17.142;2022-12-11T01:07:59;4.80;93.00
12309;DHT22;6217;48.150;17.142;2022-12-11T01:12:05;4.80;93.00
12309;DHT22;6217;48.150;17.142;2022-12-11T01:16:14;4.80;93.00
12309;DHT22;6217;48.150;17.142;2022-12-11T01:20:21;4.80;93.00
12309;DHT22;6217;48.150;17.142;2022-12-11T01:24:27;4.80;92.90
12309;DHT22;6217;48.150;17.142;2022-12-11T01:28:33;4.80;93.00
12309;DHT22;6217;48.150;17.142;2022-12-11T01:32:40;4.90;93.00
12309;DHT22;6217;48.150;17.142;2022-12-11T01:36:46;4.80;92.90
12309;DHT22;6217;48.150;17.142;2022-12-11T01:40:52;4.80;92.80
12309;DHT22;6217;48.150;17.142;2022-12-11T01:45:29;4.80;92.80
12309;DHT22;6217;48.150;17.142;2022-12-11T01:49:37;4.80;92.80
12309;DHT22;6217;48.150;17.142;2022-12-11T01:53:55;4.80;92.80
12309;DHT22;6217;48.150;17.142;2022-12-11T01:58:03;4.90;92.80
12309;DHT22;6217;48.150;17.142;2022-12-11T02:02:18;4.80;92.60
12309;DHT22;6217;48.150;17.142;2022-12-11T02:10:50;4.90;92.60
12309;DHT22;6217;48.150;17.142;2022-12-11T02:24:05;4.90;92.70
12309;DHT22;6217;48.150;17.142;2022-12-11T02:32:58;4.90;92.80
12309;DHT22;6217;48.150;17.142;2022-12-11T02:37:17;4.90;92.70
12309;DHT22;6217;48.150;17.142;2022-12-11T02:41:25;5.00;92.70
12309;DHT22;6217;48.150;17.142;2022-12-11T02:45:33;4.90;92.70
12309;DHT22;6217;48.150;17.142;2022-12-11T02:49:41;4.90;92.60
12309;DHT22;6217;48.150;17.142;2022-12-11T02:53:49;4.90;92.80
12309;DHT22;6217;48.150;17.142;2022-12-11T02:58:13;4.90;92.70
12309;DHT22;6217;48.150;17.142;2022-12-11T03:02:22;5.10;92.70
12309;DHT22;6217;48.150;17.142;2022-12-11T03:06:33;4.90;92.40
12309;DHT22;6217;48.150;17.142;2022-12-11T03:10:40;4.90;92.70
12309;DHT22;6217;48.150;17.142;2022-12-11T03:14:46;4.90;92.60
12309;DHT22;6217;48.150;17.142;2022-12-11T03:27:43;4.80;92.70
12309;DHT22;6217;48.150;17.142;2022-12-11T03:31:56;4.80;92.80
12309;DHT22;6217;48.150;17.142;2022-12-11T03:36:05;4.70;92.60
12309;DHT22;6217;48.150;17.142;2022-12-11T03:40:16;4.70;92.60
12309;DHT22;6217;48.150;17.142;2022-12-11T03:44:23;4.70;92.70
12309;DHT22;6217;48.150;17.142;2022-12-11T03:48:33;4.70;92.60
12309;DHT22;6217;48.150;17.142;2022-12-11T03:52:41;4.60;92.70
12309;DHT22;6217;48.150;17.142;2022-12-11T03:56:50;4.70;92.70
12309;DHT22;6217;48.150;17.142;2022-12-11T04:00:57;4.70;92.70
12309;DHT22;6217;48.150;17.142;2022-12-11T04:05:03;4.80;92.70
12309;DHT22;6217;48.150;17.142;2022-12-11T04:09:09;4.70;92.50
12309;DHT22;6217;48.150;17.142;2022-12-11T04:13:14;4.70;92.60
12309;DHT22;6217;48.150;17.142;2022-12-11T04:17:23;4.70;92.70
12309;DHT22;6217;48.150;17.142;2022-12-11T04:21:49;4.60;92.70
12309;DHT22;6217;48.150;17.142;2022-12-11T04:26:33;4.60;92.80
12309;DHT22;6217;48.150;17.142;2022-12-11T04:30:50;4.50;92.90
12309;DHT22;6217;48.150;17.142;2022-12-11T04:34:55;4.60;92.90
12309;DHT22;6217;48.150;17.142;2022-12-11T04:39:03;4.50;92.90
12309;DHT22;6217;48.150;17.142;2022-12-11T04:43:11;4.60;92.90
12309;DHT22;6217;48.150;17.142;2022-12-11T04:47:17;4.40;93.00
12309;DHT22;6217;48.150;17.142;2022-12-11T04:51:23;4.30;93.20
12309;DHT22;6217;48.150;17.142;2022-12-11T04:55:29;4.20;93.30
12309;DHT22;6217;48.150;17.142;2022-12-11T04:59:39;4.30;93.50
12309;DHT22;6217;48.150;17.142;2022-12-11T05:03:46;4.30;93.20
12309;DHT22;6217;48.150;17.142;2022-12-11T05:07:55;4.20;93.40
12309;DHT22;6217;48.150;17.142;2022-12-11T05:12:01;4.20;93.50
12309;DHT22;6217;48.150;17.142;2022-12-11T05:16:09;4.20;93.50
12309;DHT22;6217;48.150;17.142;2022-12-11T05:20:15;4.20;93.50
12309;DHT22;6217;48.150;17.142;2022-12-11T05:24:21;4.20;93.40
12309;DHT22;6217;48.150;17.142;2022-12-11T05:28:28;4.20;93.40
12309;DHT22;6217;48.150;17.142;2022-12-11T05:32:34;4.20;93.50
12309;DHT22;6217;48.150;17.142;2022-12-11T05:36:40;4.30;93.40
12309;DHT22;6217;48.150;17.142;2022-12-11T05:41:00;4.30;93.20
12309;DHT22;6217;48.150;17.142;2022-12-11T05:45:07;4.30;93.20
12309;DHT22;6217;48.150;17.142;2022-12-11T05:49:13;4.30;93.20
12309;DHT22;6217;48.150;17.142;2022-12-11T05:53:18;4.20;93.20
12309;DHT22;6217;48.150;17.142;2022-12-11T05:57:24;4.20;93.20
12309;DHT22;6217;48.150;17.142;2022-12-11T06:01:36;4.20;93.20
12309;DHT22;6217;48.150;17.142;2022-12-11T06:05:44;4.10;93.30
12309;DHT22;6217;48.150;17.142;2022-12-11T06:09:50;4.10;93.30
12309;DHT22;6217;48.150;17.142;2022-12-11T06:13:56;4.20;93.30
12309;DHT22;6217;48.150;17.142;2022-12-11T06:18:02;4.10;93.40
12309;DHT22;6217;48.150;17.142;2022-12-11T06:22:08;4.00;93.50
12309;DHT22;6217;48.150;17.142;2022-12-11T06:26:14;3.90;93.60
12309;DHT22;6217;48.150;17.142;2022-12-11T06:30:20;3.90;93.80
12309;DHT22;6217;48.150;17.142;2022-12-11T06:34:26;3.90;93.90
12309;DHT22;6217;48.150;17.142;2022-12-11T06:38:32;3.80;93.90
12309;DHT22;6217;48.150;17.142;2022-12-11T06:42:38;3.80;93.90
12309;DHT22;6217;48.150;17.142;2022-12-11T06:46:44;3.80;94.00
12309;DHT22;6217;48.150;17.142;2022-12-11T06:50:50;3.70;94.10
12309;DHT22;6217;48.150;17.142;2022-12-11T06:54:56;3.80;94.10
12309;DHT22;6217;48.150;17.142;2022-12-11T06:59:02;3.70;94.20
12309;DHT22;6217;48.150;17.142;2022-12-11T07:03:09;3.60;94.30
12309;DHT22;6217;48.150;17.142;2022-12-11T07:07:15;3.50;94.60
12309;DHT22;6217;48.150;17.142;2022-12-11T07:11:21;3.40;94.70
12309;DHT22;6217;48.150;17.142;2022-12-11T07:15:27;3.50;94.80
12309;DHT22;6217;48.150;17.142;2022-12-11T07:19:33;3.40;94.70
12309;DHT22;6217;48.150;17.142;2022-12-11T07:23:39;3.40;94.90
12309;DHT22;6217;48.150;17.142;2022-12-11T07:27:45;3.50;94.90
12309;DHT22;6217;48.150;17.142;2022-12-11T07:31:51;3.40;94.80
12309;DHT22;6217;48.150;17.142;2022-12-11T07:36:03;3.40;95.00
12309;DHT22;6217;48.150;17.142;2022-12-11T07:40:10;3.30;95.10
12309;DHT22;6217;48.150;17.142;2022-12-11T07:44:23;3.40;95.10
12309;DHT22;6217;48.150;17.142;2022-12-11T07:48:29;3.30;95.20
12309;DHT22;6217;48.150;17.142;2022-12-11T07:52:36;3.30;95.30
12309;DHT22;6217;48.150;17.142;2022-12-11T07:56:46;3.20;95.30
12309;DHT22;6217;48.150;17.142;2022-12-11T08:00:52;3.30;95.40
12309;DHT22;6217;48.150;17.142;2022-12-11T08:04:58;3.30;95.20
12309;DHT22;6217;48.150;17.142;2022-12-11T08:09:07;3.30;95.20
12309;DHT22;6217;48.150;17.142;2022-12-11T08:13:12;3.40;95.30
12309;DHT22;6217;48.150;17.142;2022-12-11T08:17:20;3.40;95.30
12309;DHT22;6217;48.150;17.142;2022-12-11T08:21:27;3.60;95.50
12309;DHT22;6217;48.150;17.142;2022-12-11T08:25:34;3.50;95.10
12309;DHT22;6217;48.150;17.142;2022-12-11T08:29:41;3.50;95.20
12309;DHT22;6217;48.150;17.142;2022-12-11T08:33:48;3.50;95.30
12309;DHT22;6217;48.150;17.142;2022-12-11T08:37:53;3.40;95.10
12309;DHT22;6217;48.150;17.142;2022-12-11T08:41:59;3.30;95.40
12309;DHT22;6217;48.150;17.142;2022-12-11T08:46:05;3.40;95.30
12309;DHT22;6217;48.150;17.142;2022-12-11T08:50:11;3.20;95.30
12309;DHT22;6217;48.150;17.142;2022-12-11T08:54:17;3.20;95.50
12309;DHT22;6217;48.150;17.142;2022-12-11T08:58:23;3.20;95.60
12309;DHT22;6217;48.150;17.142;2022-12-11T09:02:29;3.30;95.60
12309;DHT22;6217;48.150;17.142;2022-12-11T09:06:35;3.30;95.40
12309;DHT22;6217;48.150;17.142;2022-12-11T09:10:41;3.40;95.60
12309;DHT22;6217;48.150;17.142;2022-12-11T09:14:46;3.40;95.30
12309;DHT22;6217;48.150;17.142;2022-12-11T09:18:54;3.40;95.20
12309;DHT22;6217;48.150;17.142;2022-12-11T09:23:01;3.60;95.30
12309;DHT22;6217;48.150;17.142;2022-12-11T09:27:07;3.70;95.10
12309;DHT22;6217;48.150;17.142;2022-12-11T09:31:16;4.00;95.00
12309;DHT22;6217;48.150;17.142;2022-12-11T09:35:22;4.10;94.70
12309;DHT22;6217;48.150;17.142;2022-12-11T09:39:31;4.20;94.50
12309;DHT22;6217;48.150;17.142;2022-12-11T09:43:45;4.40;94.50
12309;DHT22;6217;48.150;17.142;2022-12-11T09:47:53;4.70;94.20
12309;DHT22;6217;48.150;17.142;2022-12-11T09:56:24;4.90;93.40
12309;DHT22;6217;48.150;17.142;2022-12-11T10:05:28;5.00;93.40
12309;DHT22;6217;48.150;17.142;2022-12-11T10:09:48;4.90;93.10
12309;DHT22;6217;48.150;17.142;2022-12-11T10:14:01;5.00;93.40
12309;DHT22;6217;48.150;17.142;2022-12-11T10:18:18;5.10;92.90
12309;DHT22;6217;48.150;17.142;2022-12-11T10:22:30;5.00;92.70
12309;DHT22;6217;48.150;17.142;2022-12-11T10:26:38;5.00;93.00
12309;DHT22;6217;48.150;17.142;2022-12-11T10:35:27;4.80;92.80
12309;DHT22;6217;48.150;17.142;2022-12-11T10:39:34;4.80;92.80
12309;DHT22;6217;48.150;17.142;2022-12-11T10:43:45;4.80;92.80
12309;DHT22;6217;48.150;17.142;2022-12-11T10:48:02;5.00;92.70
12309;DHT22;6217;48.150;17.142;2022-12-11T10:52:19;5.20;92.60
12309;DHT22;6217;48.150;17.142;2022-12-11T10:56:30;5.30;92.50
12309;DHT22;6217;48.150;17.142;2022-12-11T11:00:39;5.10;92.50
12309;DHT22;6217;48.150;17.142;2022-12-11T11:04:45;5.10;91.90
12309;DHT22;6217;48.150;17.142;2022-12-11T11:08:56;4.90;92.30
12309;DHT22;6217;48.150;17.142;2022-12-11T11:13:02;4.60;92.10
12309;DHT22;6217;48.150;17.142;2022-12-11T11:17:15;4.50;92.40
12309;DHT22;6217;48.150;17.142;2022-12-11T11:21:24;4.40;92.30
12309;DHT22;6217;48.150;17.142;2022-12-11T11:25:32;4.30;92.40
12309;DHT22;6217;48.150;17.142;2022-12-11T11:29:38;4.20;92.50
12309;DHT22;6217;48.150;17.142;2022-12-11T11:33:59;4.10;92.50
12309;DHT22;6217;48.150;17.142;2022-12-11T11:38:18;4.10;92.30
12309;DHT22;6217;48.150;17.142;2022-12-11T11:42:56;4.20;92.50
12309;DHT22;6217;48.150;17.142;2022-12-11T11:47:13;4.40;92.50
12309;DHT22;6217;48.150;17.142;2022-12-11T11:51:35;4.40;92.00
12309;DHT22;6217;48.150;17.142;2022-12-11T12:00:24;4.10;92.10
12309;DHT22;6217;48.150;17.142;2022-12-11T12:04:33;4.10;91.80
12309;DHT22;6217;48.150;17.142;2022-12-11T12:22:08;3.70;91.60
12309;DHT22;6217;48.150;17.142;2022-12-11T12:26:33;3.80;91.70
12309;DHT22;6217;48.150;17.142;2022-12-11T12:30:58;3.80;91.70
12309;DHT22;6217;48.150;17.142;2022-12-11T12:44:09;3.90;91.30
12309;DHT22;6217;48.150;17.142;2022-12-11T12:48:17;3.90;91.20
12309;DHT22;6217;48.150;17.142;2022-12-11T12:52:38;3.80;91.00
12309;DHT22;6217;48.150;17.142;2022-12-11T12:56:48;3.80;91.20
12309;DHT22;6217;48.150;17.142;2022-12-11T13:01:09;3.90;91.20
12309;DHT22;6217;48.150;17.142;2022-12-11T13:05:40;3.90;91.00
12309;DHT22;6217;48.150;17.142;2022-12-11T13:14:32;3.80;90.80
12309;DHT22;6217;48.150;17.142;2022-12-11T13:18:38;3.70;90.70
12309;DHT22;6217;48.150;17.142;2022-12-11T13:23:07;3.60;90.90
12309;DHT22;6217;48.150;17.142;2022-12-11T13:31:38;3.70;91.10
12309;DHT22;6217;48.150;17.142;2022-12-11T13:35:44;3.70;90.80
12309;DHT22;6217;48.150;17.142;2022-12-11T13:39:50;3.80;90.80
12309;DHT22;6217;48.150;17.142;2022-12-11T13:43:57;3.80;90.60
12309;DHT22;6217;48.150;17.142;2022-12-11T13:48:03;3.70;90.50
12309;DHT22;6217;48.150;17.142;2022-12-11T13:52:20;3.70;90.30
12309;DHT22;6217;48.150;17.142;2022-12-11T13:56:25;3.70;90.30
12309;DHT22;6217;48.150;17.142;2022-12-11T14:01:13;3.60;90.40
12309;DHT22;6217;48.150;17.142;2022-12-11T14:05:17;3.50;90.30
12309;DHT22;6217;48.150;17.142;2022-12-11T14:09:24;3.50;90.50
12309;DHT22;6217;48.150;17.142;2022-12-11T14:13:35;3.40;90.00
12309;DHT22;6217;48.150;17.142;2022-12-11T14:17:42;3.40;90.20
12309;DHT22;6217;48.150;17.142;2022-12-11T14:21:56;3.30;90.10
12309;DHT22;6217;48.150;17.142;2022-12-11T14:26:04;3.20;90.20
12309;DHT22;6217;48.150;17.142;2022-12-11T14:30:22;3.30;90.30
12309;DHT22;6217;48.150;17.142;2022-12-11T14:34:42;3.40;90.30
12309;DHT22;6217;48.150;17.142;2022-12-11T14:38:53;3.40;90.30
12309;DHT22;6217;48.150;17.142;2022-12-11T14:43:07;3.30;90.00
12309;DHT22;6217;48.150;17.142;2022-12-11T14:47:38;3.40;90.10
12309;DHT22;6217;48.150;17.142;2022-12-11T14:51:48;3.30;90.10
12309;DHT22;6217;48.150;17.142;2022-12-11T14:55:57;3.40;90.30
12309;DHT22;6217;48.150;17.142;2022-12-11T15:00:07;3.50;90.10
12309;DHT22;6217;48.150;17.142;2022-12-11T15:08:25;3.30;89.40
12309;DHT22;6217;48.150;17.142;2022-12-11T15:12:31;3.20;90.10
12309;DHT22;6217;48.150;17.142;2022-12-11T15:16:39;3.30;90.10
12309;DHT22;6217;48.150;17.142;2022-12-11T15:20:50;3.30;89.90
12309;DHT22;6217;48.150;17.142;2022-12-11T15:24:57;3.30;89.50
12309;DHT22;6217;48.150;17.142;2022-12-11T15:29:21;3.40;89.70
12309;DHT22;6217;48.150;17.142;2022-12-11T15:33:28;3.20;89.00
12309;DHT22;6217;48.150;17.142;2022-12-11T15:37:34;3.20;89.80
12309;DHT22;6217;48.150;17.142;2022-12-11T15:41:41;3.20;89.70
12309;DHT22;6217;48.150;17.142;2022-12-11T15:45:47;3.30;89.50
12309;DHT22;6217;48.150;17.142;2022-12-11T15:49:57;3.30;89.50
12309;DHT22;6217;48.150;17.142;2022-12-11T15:54:03;3.30;89.20
12309;DHT22;6217;48.150;17.142;2022-12-11T15:58:14;3.20;88.90
12309;DHT22;6217;48.150;17.142;2022-12-11T16:02:21;3.10;88.10
12309;DHT22;6217;48.150;17.142;2022-12-11T16:06:28;3.00;88.70
12309;DHT22;6217;48.150;17.142;2022-12-11T16:10:34;3.10;88.90
12309;DHT22;6217;48.150;17.142;2022-12-11T16:14:41;3.00;88.30
12309;DHT22;6217;48.150;17.142;2022-12-11T16:18:47;2.90;87.90
12309;DHT22;6217;48.150;17.142;2022-12-11T16:22:53;2.80;87.80
12309;DHT22;6217;48.150;17.142;2022-12-11T16:26:58;2.90;87.50
12309;DHT22;6217;48.150;17.142;2022-12-11T16:31:12;2.90;87.80
12309;DHT22;6217;48.150;17.142;2022-12-11T16:35:19;2.90;87.70
12309;DHT22;6217;48.150;17.142;2022-12-11T16:39:25;3.00;87.60
12309;DHT22;6217;48.150;17.142;2022-12-11T16:43:32;2.90;87.00
12309;DHT22;6217;48.150;17.142;2022-12-11T16:47:37;2.80;86.60
12309;DHT22;6217;48.150;17.142;2022-12-11T16:51:43;2.80;86.80
12309;DHT22;6217;48.150;17.142;2022-12-11T16:55:50;2.90;87.00
12309;DHT22;6217;48.150;17.142;2022-12-11T16:59:55;3.00;87.20
12309;DHT22;6217;48.150;17.142;2022-12-11T17:04:01;3.00;86.80
12309;DHT22;6217;48.150;17.142;2022-12-11T17:08:07;3.00;86.60
12309;DHT22;6217;48.150;17.142;2022-12-11T17:12:13;3.00;86.70
12309;DHT22;6217;48.150;17.142;2022-12-11T17:16:23;3.00;87.00
12309;DHT22;6217;48.150;17.142;2022-12-11T17:20:30;3.00;86.60
12309;DHT22;6217;48.150;17.142;2022-12-11T17:24:36;3.00;86.80
12309;DHT22;6217;48.150;17.142;2022-12-11T17:28:44;3.00;86.70
12309;DHT22;6217;48.150;17.142;2022-12-11T17:33:02;2.90;86.80
12309;DHT22;6217;48.150;17.142;2022-12-11T17:55:19;2.90;86.90
12309;DHT22;6217;48.150;17.142;2022-12-11T17:59:25;2.90;86.40
12309;DHT22;6217;48.150;17.142;2022-12-11T18:03:31;2.80;86.00
12309;DHT22;6217;48.150;17.142;2022-12-11T18:07:39;2.80;86.40
12309;DHT22;6217;48.150;17.142;2022-12-11T18:12:16;2.80;86.70
12309;DHT22;6217;48.150;17.142;2022-12-11T18:17:26;2.80;86.30
12309;DHT22;6217;48.150;17.142;2022-12-11T18:22:49;2.80;86.40
12309;DHT22;6217;48.150;17.142;2022-12-11T18:26:59;3.00;86.30
12309;DHT22;6217;48.150;17.142;2022-12-11T18:37:34;2.80;85.70
12309;DHT22;6217;48.150;17.142;2022-12-11T18:42:34;2.70;85.70
12309;DHT22;6217;48.150;17.142;2022-12-11T18:46:40;2.90;86.10
12309;DHT22;6217;48.150;17.142;2022-12-11T18:50:50;2.90;86.10
12309;DHT22;6217;48.150;17.142;2022-12-11T18:54:58;2.90;85.40
12309;DHT22;6217;48.150;17.142;2022-12-11T18:59:36;2.70;84.60
12309;DHT22;6217;48.150;17.142;2022-12-11T19:03:43;2.70;84.90
12309;DHT22;6217;48.150;17.142;2022-12-11T19:07:54;2.80;85.30
12309;DHT22;6217;48.150;17.142;2022-12-11T19:12:05;2.80;85.30
12309;DHT22;6217;48.150;17.142;2022-12-11T19:16:20;2.90;85.00
12309;DHT22;6217;48.150;17.142;2022-12-11T19:20:27;2.80;84.50
12309;DHT22;6217;48.150;17.142;2022-12-11T19:24:33;2.80;84.60
12309;DHT22;6217;48.150;17.142;2022-12-11T19:28:41;2.80;84.80
12309;DHT22;6217;48.150;17.142;2022-12-11T19:32:47;2.80;84.60
12309;DHT22;6217;48.150;17.142;2022-12-11T19:36:55;2.70;84.40
12309;DHT22;6217;48.150;17.142;2022-12-11T19:41:12;2.60;85.00
12309;DHT22;6217;48.150;17.142;2022-12-11T19:45:44;2.60;84.70
12309;DHT22;6217;48.150;17.142;2022-12-11T19:57:03;2.50;84.70
12309;DHT22;6217;48.150;17.142;2022-12-11T20:01:33;2.40;85.90
12309;DHT22;6217;48.150;17.142;2022-12-11T20:06:21;2.40;85.90
12309;DHT22;6217;48.150;17.142;2022-12-11T20:10:30;2.30;85.80
12309;DHT22;6217;48.150;17.142;2022-12-11T20:14:37;2.40;86.20
12309;DHT22;6217;48.150;17.142;2022-12-11T20:19:56;2.30;86.40
12309;DHT22;6217;48.150;17.142;2022-12-11T20:24:24;2.10;87.10
12309;DHT22;6217;48.150;17.142;2022-12-11T20:34:39;2.10;87.80
12309;DHT22;6217;48.150;17.142;2022-12-11T20:38:56;2.10;88.50
12309;DHT22;6217;48.150;17.142;2022-12-11T20:43:53;2.00;87.80
12309;DHT22;6217;48.150;17.142;2022-12-11T20:49:30;2.00;88.20
12309;DHT22;6217;48.150;17.142;2022-12-11T21:00:39;1.90;88.60
12309;DHT22;6217;48.150;17.142;2022-12-11T21:19:20;2.10;88.60
12309;DHT22;6217;48.150;17.142;2022-12-11T21:23:38;2.10;88.70
12309;DHT22;6217;48.150;17.142;2022-12-11T21:28:23;2.00;88.50
12309;DHT22;6217;48.150;17.142;2022-12-11T22:57:52;2.00;88.30
12309;DHT22;6217;48.150;17.142;2022-12-11T23:09:28;2.10;88.10
12309;DHT22;6217;48.150;17.142;2022-12-11T23:21:15;2.00;88.20
12309;DHT22;6217;48.150;17.142;2022-12-11T23:57:19;1.80;86.50
